TimeMST,TemperatureF,Dew PointF,Humidity,Sea Level PressureIn,VisibilityMPH,Wind Direction,Wind SpeedMPH,Gust SpeedMPH,PrecipitationIn,Events,Conditions,WindDirDegrees,DateUTC
12:53 AM,24.1,5.0,44,30.31,10.0,SW,25.3,-,N/A,,Clear,230,2013-12-12 07:53:00
1:53 AM,25.0,6.1,45,30.29,10.0,SW,31.1,39.1,N/A,,Clear,230,2013-12-12 08:53:00
2:53 AM,26.1,6.1,43,30.30,10.0,SW,31.1,-,N/A,,Clear,230,2013-12-12 09:53:00
3:53 AM,26.1,7.0,44,30.31,10.0,SW,31.1,41.4,N/A,,Clear,220,2013-12-12 10:53:00
4:53 AM,24.1,7.0,48,30.31,10.0,SW,33.4,-,N/A,,Clear,220,2013-12-12 11:53:00
5:53 AM,27.0,7.0,43,30.33,10.0,SW,25.3,34.5,N/A,,Clear,220,2013-12-12 12:53:00
6:53 AM,28.0,8.1,43,30.30,10.0,SW,31.1,-,N/A,,Clear,230,2013-12-12 13:53:00
7:53 AM,28.0,8.1,43,30.31,10.0,SW,26.5,35.7,N/A,,Clear,230,2013-12-12 14:53:00
8:53 AM,30.0,10.0,43,30.31,10.0,SW,18.4,-,N/A,,Clear,230,2013-12-12 15:53:00
9:53 AM,33.1,12.9,43,30.29,10.0,WSW,17.3,-,N/A,,Clear,240,2013-12-12 16:53:00
10:53 AM,36.0,12.9,39,30.24,10.0,WSW,26.5,-,N/A,,Clear,240,2013-12-12 17:53:00
11:53 AM,37.9,12.9,36,30.19,10.0,SW,23.0,-,N/A,,Clear,220,2013-12-12 18:53:00
12:53 PM,39.9,14.0,35,30.15,10.0,SW,26.5,-,N/A,,Clear,220,2013-12-12 19:53:00
1:53 PM,39.0,14.0,36,30.11,10.0,WSW,27.6,-,N/A,,Clear,240,2013-12-12 20:53:00
2:53 PM,39.0,14.0,36,30.08,10.0,WSW,32.2,-,N/A,,Clear,240,2013-12-12 21:53:00
3:53 PM,36.0,14.0,41,30.11,10.0,SW,20.7,-,N/A,,Clear,220,2013-12-12 22:53:00
4:53 PM,33.1,12.0,42,30.12,10.0,WSW,15.0,-,N/A,,Clear,240,2013-12-12 23:53:00
5:53 PM,33.1,10.9,40,30.09,10.0,WSW,23.0,32.2,N/A,,Clear,240,2013-12-13 00:53:00
6:53 PM,30.9,10.0,42,30.07,10.0,SW,18.4,-,N/A,,Clear,230,2013-12-13 01:53:00
7:53 PM,28.9,10.0,45,30.06,10.0,SW,18.4,-,N/A,,Clear,230,2013-12-13 02:53:00
8:53 PM,30.0,9.0,41,30.03,10.0,SSW,21.9,-,N/A,,Clear,210,2013-12-13 03:53:00
9:53 PM,28.9,8.1,41,29.99,10.0,SW,26.5,-,N/A,,Clear,220,2013-12-13 04:53:00
10:53 PM,30.0,8.1,40,29.96,10.0,SW,21.9,-,N/A,,Clear,230,2013-12-13 05:53:00
11:53 PM,28.9,8.1,41,29.92,10.0,SW,25.3,-,N/A,,Clear,230,2013-12-13 06:53:00